createdAt,value
2018-11-26T00:02:52.067Z,101483.47
2018-11-26T00:05:57.615Z,101477.47
2018-11-26T00:09:03.082Z,101482.98
2018-11-26T00:12:08.574Z,101477.87
2018-11-26T00:15:14.287Z,101485.26
2018-11-26T00:18:19.698Z,101483.25
2018-11-26T00:21:25.127Z,101492.27
2018-11-26T00:24:30.603Z,101486.23
2018-11-26T00:27:36.028Z,101484.98
2018-11-26T00:30:41.491Z,101487.08
2018-11-26T00:33:46.950Z,101496.09
2018-11-26T00:36:52.783Z,101497.33
2018-11-26T00:39:58.255Z,101490.85
2018-11-26T00:43:03.686Z,101473.61
2018-11-26T00:46:09.150Z,101473.61
2018-11-26T00:49:14.510Z,101468.11
2018-11-26T00:52:20.023Z,101465.92
2018-11-26T00:55:25.408Z,101472.28
2018-11-26T00:58:30.823Z,101464.24
2018-11-26T01:01:36.387Z,101465.72
2018-11-26T01:04:42.431Z,101468.25
2018-11-26T01:07:47.779Z,101461.94
2018-11-26T01:10:53.247Z,101462.86
2018-11-26T01:13:58.704Z,101462.95
2018-11-26T01:17:04.155Z,101461.22
2018-11-26T01:20:09.603Z,101461.22
2018-11-26T01:23:15.132Z,101465.16
2018-11-26T01:26:21.321Z,101465.24
2018-11-26T01:29:26.742Z,101469.98
2018-11-26T01:32:32.246Z,101458.80
2018-11-26T01:35:37.667Z,101460.09
2018-11-26T01:38:43.107Z,101462.38
2018-11-26T01:41:48.551Z,101461.09
2018-11-26T01:44:54.087Z,101460.65
2018-11-26T01:47:59.550Z,101460.75
2018-11-26T01:51:04.908Z,101463.33
2018-11-26T01:54:10.748Z,101462.45
2018-11-26T01:57:16.211Z,101459.47
2018-11-26T02:00:26.146Z,101460.31
2018-11-26T02:03:31.555Z,101453.11
2018-11-26T02:06:36.939Z,101452.73
2018-11-26T02:09:42.298Z,101449.79
2018-11-26T02:12:47.764Z,101445.97
2018-11-26T02:15:53.117Z,101451.55
2018-11-26T02:18:58.470Z,101448.16
2018-11-26T02:22:04.015Z,101447.25
2018-11-26T02:25:10.143Z,101448.09
2018-11-26T02:28:15.514Z,101451.11
2018-11-26T02:31:21.067Z,101451.98
2018-11-26T02:34:26.395Z,101447.31
2018-11-26T02:37:31.854Z,101456.31
2018-11-26T02:40:37.195Z,101458.48
2018-11-26T02:43:42.599Z,101464.03
2018-11-26T02:46:47.985Z,101464.09
2018-11-26T02:49:53.427Z,101461.14
2018-11-26T02:52:58.828Z,101458.98
2018-11-26T02:56:04.187Z,101457.26
2018-11-26T02:59:09.599Z,101465.44
2018-11-26T03:02:15.139Z,101460.33
2018-11-26T03:05:35.306Z,101472.30
2018-11-26T03:08:40.787Z,101467.66
2018-11-26T03:11:46.251Z,101465.59
2018-11-26T03:14:51.662Z,101464.70
2018-11-26T03:17:57.132Z,101467.68
2018-11-26T03:21:02.485Z,101465.98
2018-11-26T03:24:08.339Z,101459.53
2018-11-26T03:27:13.783Z,101459.09
2018-11-26T03:30:22.181Z,101460.44
2018-11-26T03:33:27.719Z,101450.97
2018-11-26T03:36:33.179Z,101453.59
2018-11-26T03:39:38.752Z,101454.88
2018-11-26T03:42:44.822Z,101457.83
2018-11-26T03:45:50.247Z,101463.05
2018-11-26T03:48:55.718Z,101467.32
2018-11-26T03:52:01.187Z,101465.21
2018-11-26T03:55:08.675Z,101469.06
2018-11-26T03:58:14.142Z,101476.78
2018-11-26T04:01:19.639Z,101484.90
2018-11-26T04:04:25.107Z,101487.52
2018-11-26T04:07:30.467Z,101484.50
2018-11-26T04:10:35.814Z,101490.05
2018-11-26T04:13:41.299Z,101483.57
2018-11-26T04:16:46.678Z,101477.09
2018-11-26T04:19:52.151Z,101472.77
2018-11-26T04:22:58.413Z,101474.88
2018-11-26T04:26:03.851Z,101476.55
2018-11-26T04:29:09.211Z,101479.91
2018-11-26T04:32:14.853Z,101472.62
2018-11-26T04:35:20.224Z,101485.02
2018-11-26T04:38:25.760Z,101481.10
2018-11-26T04:41:31.187Z,101484.93
2018-11-26T04:44:36.556Z,101485.81
2018-11-26T04:47:42.635Z,101479.75
2018-11-26T04:50:48.067Z,101469.36
2018-11-26T04:53:53.531Z,101469.29
2018-11-26T04:56:58.949Z,101471.05
2018-11-26T05:00:06.078Z,101477.01
2018-11-26T05:03:11.620Z,101473.45
2018-11-26T05:06:16.961Z,101478.19
2018-11-26T05:09:22.400Z,101476.91
2018-11-26T05:12:27.771Z,101485.84
2018-11-26T05:15:33.179Z,101480.77
2018-11-26T05:18:38.646Z,101481.49
2018-11-26T05:21:44.103Z,101485.80
2018-11-26T05:24:49.535Z,101480.69
2018-11-26T05:27:54.966Z,101485.77
2018-11-26T05:31:00.335Z,101488.30
2018-11-26T05:34:06.199Z,101494.17
2018-11-26T05:37:11.627Z,101498.00
2018-11-26T05:40:17.205Z,101492.88
2018-11-26T05:43:22.884Z,101501.81
2018-11-26T05:46:28.275Z,101495.86
2018-11-26T05:49:33.744Z,101503.23
2018-11-26T05:52:40.547Z,101498.16
2018-11-26T05:55:45.980Z,101497.23
2018-11-26T05:58:51.424Z,101500.77
2018-11-26T06:01:57.570Z,101505.92
2018-11-26T06:05:02.935Z,101508.05
2018-11-26T06:08:08.302Z,101507.69
2018-11-26T06:11:13.835Z,101511.11
2018-11-26T06:14:19.287Z,101517.06
2018-11-26T06:17:24.768Z,101511.47
2018-11-26T06:20:30.186Z,101513.34
2018-11-26T06:23:35.707Z,101517.34
2018-11-26T06:26:41.172Z,101512.64
2018-11-26T06:29:46.628Z,101518.63
2018-11-26T06:32:52.217Z,101527.27
2018-11-26T06:35:57.572Z,101519.16
2018-11-26T06:39:03.055Z,101521.77
2018-11-26T06:42:08.527Z,101522.23
2018-11-26T06:45:28.828Z,101529.22
2018-11-26T06:48:35.856Z,101529.24
2018-11-26T06:51:41.293Z,101535.70
2018-11-26T06:54:46.797Z,101527.05
2018-11-26T06:57:52.259Z,101534.83
2018-11-26T07:00:57.962Z,101532.30
2018-11-26T07:04:03.394Z,101526.75
2018-11-26T07:07:08.776Z,101527.58
2018-11-26T07:10:14.973Z,101527.95
2018-11-26T07:13:20.664Z,101532.25
2018-11-26T07:16:26.067Z,101529.22
2018-11-26T07:19:31.447Z,101527.94
2018-11-26T07:22:36.971Z,101537.42
2018-11-26T07:25:42.407Z,101530.60
2018-11-26T07:28:47.767Z,101530.09
2018-11-26T07:31:53.832Z,101532.20
2018-11-26T07:34:59.254Z,101531.91
2018-11-26T07:38:04.738Z,101531.89
2018-11-26T07:41:10.251Z,101527.59
2018-11-26T07:44:15.736Z,101534.02
2018-11-26T07:47:21.106Z,101531.45
2018-11-26T07:50:26.769Z,101533.12
2018-11-26T07:53:32.287Z,101537.42
2018-11-26T07:56:37.628Z,101539.97
2018-11-26T07:59:45.262Z,101550.20
2018-11-26T08:02:52.066Z,101549.92
2018-11-26T08:05:57.551Z,101548.53
2018-11-26T08:09:04.375Z,101548.95
2018-11-26T08:12:09.804Z,101546.81
2018-11-26T08:15:18.984Z,101550.61
2018-11-26T08:18:24.371Z,101554.48
2018-11-26T08:21:29.740Z,101563.04
2018-11-26T08:24:35.158Z,101563.43
2018-11-26T08:27:42.245Z,101559.98
2018-11-26T08:30:47.609Z,101565.53
2018-11-26T08:33:53.003Z,101562.47
2018-11-26T08:37:03.783Z,101562.91
2018-11-26T08:40:12.351Z,101564.58
2018-11-26T08:43:20.132Z,101570.11
2018-11-26T08:46:36.881Z,101567.03
2018-11-26T08:49:42.175Z,101564.42
2018-11-26T08:52:47.565Z,101568.19
2018-11-26T08:55:53.368Z,101573.94
2018-11-26T08:58:58.791Z,101569.13
2018-11-26T09:02:08.229Z,101567.81
2018-11-26T09:05:23.944Z,101559.92
2018-11-26T09:08:25.379Z,101552.56
2018-11-26T09:11:30.876Z,101564.19
2018-11-26T09:14:36.344Z,101562.87
2018-11-26T09:17:41.766Z,101567.50
2018-11-26T09:20:47.144Z,101568.23
2018-11-26T09:23:53.307Z,101572.42
2018-11-26T09:26:59.244Z,101580.52
2018-11-26T09:30:06.048Z,101576.64
2018-11-26T09:33:12.095Z,101579.42
2018-11-26T09:36:17.466Z,101588.79
2018-11-26T09:39:22.829Z,101583.14
2018-11-26T09:42:29.067Z,101583.98
2018-11-26T09:45:40.094Z,101594.22
2018-11-26T09:48:40.138Z,101589.90
2018-11-26T09:51:45.538Z,101587.03
2018-11-26T09:54:50.976Z,101584.89
2018-11-26T09:57:56.325Z,101586.53
2018-11-26T10:01:02.077Z,101585.39
2018-11-26T10:04:08.031Z,101582.56
2018-11-26T10:07:13.355Z,101578.21
2018-11-26T10:10:18.828Z,101575.80
2018-11-26T10:13:24.409Z,101576.98
2018-11-26T10:16:29.849Z,101573.05
2018-11-26T10:19:35.271Z,101571.86
2018-11-26T10:22:41.100Z,101571.22
2018-11-26T10:25:47.088Z,101564.23
2018-11-26T10:28:52.503Z,101566.23
2018-11-26T10:31:58.495Z,101562.41
2018-11-26T10:35:05.009Z,101559.31
2018-11-26T10:38:10.519Z,101546.73
2018-11-26T10:41:15.876Z,101557.31
2018-11-26T10:44:21.300Z,101556.39
2018-11-26T10:47:26.770Z,101555.72
2018-11-26T10:50:32.307Z,101557.16
2018-11-26T10:53:37.688Z,101552.45
2018-11-26T10:56:43.111Z,101553.67
2018-11-26T10:59:48.889Z,101551.54
2018-11-26T11:02:54.377Z,101552.17
2018-11-26T11:05:59.760Z,101553.33
2018-11-26T11:09:07.508Z,101557.41
2018-11-26T11:12:12.914Z,101559.48
2018-11-26T11:15:19.018Z,101548.50
2018-11-26T11:18:24.402Z,101554.38
2018-11-26T11:21:29.888Z,101544.53
2018-11-26T11:24:36.031Z,101554.34
2018-11-26T11:30:46.946Z,101547.95
2018-11-26T11:33:52.372Z,101547.61
2018-11-26T11:36:57.845Z,101545.88
2018-11-26T11:40:16.948Z,101540.92
2018-11-26T11:43:22.364Z,101535.16
2018-11-26T11:46:27.981Z,101544.67
2018-11-26T11:49:33.537Z,101540.39
2018-11-26T11:52:39.327Z,101541.99
2018-11-26T11:55:44.876Z,101534.66
2018-11-26T11:58:50.304Z,101537.74
2018-11-26T12:01:56.184Z,101534.89
2018-11-26T12:05:01.521Z,101537.80
2018-11-26T12:08:08.617Z,101536.25
2018-11-26T12:11:14.597Z,101532.79
2018-11-26T12:14:20.223Z,101531.37
2018-11-26T12:17:26.007Z,101539.57
2018-11-26T12:20:31.127Z,101537.04
2018-11-26T12:23:36.570Z,101538.80
2018-11-26T12:26:42.032Z,101536.09
2018-11-26T12:29:47.452Z,101536.44
2018-11-26T12:32:52.924Z,101537.87
2018-11-26T12:35:58.398Z,101540.66
2018-11-26T12:39:04.481Z,101532.06
2018-11-26T12:42:10.492Z,101535.37
2018-11-26T12:45:22.858Z,101534.30
2018-11-26T12:48:28.284Z,101538.32
2018-11-26T12:51:33.680Z,101542.53
2018-11-26T12:54:39.293Z,101541.88
2018-11-26T12:57:45.729Z,101541.07
2018-11-26T13:00:51.268Z,101538.42
2018-11-26T13:03:56.745Z,101545.13
2018-11-26T13:07:02.462Z,101549.45
2018-11-26T13:10:11.900Z,101546.62
2018-11-26T13:13:17.281Z,101544.11
2018-11-26T13:16:22.704Z,101547.59
2018-11-26T13:19:28.260Z,101548.30
2018-11-26T13:22:34.129Z,101548.57
2018-11-26T13:25:42.038Z,101542.41
2018-11-26T13:28:46.453Z,101547.05
2018-11-26T13:31:51.882Z,101543.70
2018-11-26T13:34:57.348Z,101549.09
2018-11-26T13:38:02.803Z,101547.98
2018-11-26T13:41:08.544Z,101546.16
2018-11-26T13:44:14.010Z,101544.16
2018-11-26T13:47:19.445Z,101552.75
2018-11-26T13:50:32.956Z,101554.19
2018-11-26T13:53:38.352Z,101552.02
2018-11-26T13:56:43.805Z,101553.95
2018-11-26T13:59:49.240Z,101562.52
2018-11-26T14:02:54.654Z,101559.75
2018-11-26T14:06:00.757Z,101557.09
2018-11-26T14:09:09.896Z,101556.91
2018-11-26T14:12:15.448Z,101561.61
2018-11-26T14:15:21.431Z,101558.95
2018-11-26T14:18:26.832Z,101563.38
2018-11-26T14:21:32.271Z,101569.58
2018-11-26T14:24:37.693Z,101570.54
2018-11-26T14:27:44.130Z,101570.08
2018-11-26T14:30:49.597Z,101570.95
2018-11-26T14:33:55.024Z,101565.86
2018-11-26T14:37:00.368Z,101576.37
2018-11-26T14:40:10.740Z,101570.11
2018-11-26T14:43:16.157Z,101573.52
2018-11-26T14:46:21.524Z,101574.55
2018-11-26T14:49:26.924Z,101576.19
2018-11-26T14:52:32.302Z,101575.90
2018-11-26T14:55:39.620Z,101586.08
2018-11-26T14:58:45.036Z,101586.68
2018-11-26T15:01:50.453Z,101591.41
2018-11-26T15:04:55.882Z,101590.16
2018-11-26T15:08:01.437Z,101590.27
2018-11-26T15:11:07.721Z,101591.11
2018-11-26T15:14:13.109Z,101595.41
2018-11-26T15:17:18.598Z,101597.11
2018-11-26T15:20:26.376Z,101600.05
2018-11-26T15:23:31.744Z,101603.06
2018-11-26T15:26:37.132Z,101603.92
2018-11-26T15:29:42.533Z,101606.38
2018-11-26T15:32:47.968Z,101609.86
2018-11-26T15:35:53.409Z,101612.85
2018-11-26T15:38:58.841Z,101608.62
2018-11-26T15:42:04.264Z,101611.50
2018-11-26T15:45:23.086Z,101611.44
2018-11-26T15:48:28.417Z,101613.63
2018-11-26T15:51:33.817Z,101618.91
2018-11-26T15:54:39.242Z,101615.92
2018-11-26T15:57:44.715Z,101620.74
2018-11-26T16:00:50.113Z,101622.95
2018-11-26T16:03:56.129Z,101622.94
2018-11-26T16:07:01.521Z,101623.33
2018-11-26T16:10:10.090Z,101625.13
2018-11-26T16:13:16.841Z,101622.26
2018-11-26T16:16:22.754Z,101621.14
2018-11-26T16:19:28.251Z,101622.82
2018-11-26T16:22:33.677Z,101622.82
2018-11-26T16:25:42.821Z,101622.60
2018-11-26T16:28:48.159Z,101631.13
2018-11-26T16:31:53.704Z,101631.47
2018-11-26T16:34:59.237Z,101630.66
2018-11-26T16:38:04.714Z,101638.03
2018-11-26T16:41:10.078Z,101641.91
2018-11-26T16:44:15.619Z,101645.82
2018-11-26T16:47:21.086Z,101649.64
2018-11-26T16:50:29.481Z,101654.36
2018-11-26T16:53:34.876Z,101658.67
2018-11-26T16:56:40.667Z,101662.69
2018-11-26T16:59:46.124Z,101666.20
2018-11-26T17:02:53.221Z,101663.17
2018-11-26T17:05:58.782Z,101665.80
2018-11-26T17:09:05.584Z,101672.60
2018-11-26T17:12:11.096Z,101667.27
2018-11-26T17:15:18.564Z,101667.34
2018-11-26T17:18:23.987Z,101669.84
2018-11-26T17:21:29.336Z,101667.98
2018-11-26T17:24:34.709Z,101669.66
2018-11-26T17:27:41.392Z,101677.86
2018-11-26T17:30:46.804Z,101678.70
2018-11-26T17:33:52.228Z,101684.25
2018-11-26T17:36:57.688Z,101685.31
2018-11-26T17:40:03.129Z,101689.99
2018-11-26T17:43:13.557Z,101689.55
2018-11-26T17:46:19.020Z,101690.48
2018-11-26T17:49:24.472Z,101689.59
2018-11-26T17:52:30.516Z,101684.84
2018-11-26T17:55:48.900Z,101689.02
2018-11-26T17:58:54.320Z,101692.16
2018-11-26T18:02:01.128Z,101691.00
2018-11-26T18:05:10.804Z,101692.13
2018-11-26T18:08:17.924Z,101697.77
2018-11-26T18:11:23.401Z,101702.77
2018-11-26T18:14:28.836Z,101705.42
2018-11-26T18:17:34.229Z,101705.78
2018-11-26T18:20:39.852Z,101705.30
2018-11-26T18:23:45.322Z,101710.81
2018-11-26T18:26:50.956Z,101708.73
2018-11-26T18:29:58.447Z,101712.68
2018-11-26T18:33:03.936Z,101714.98
2018-11-26T18:36:09.374Z,101712.36
2018-11-26T18:39:15.188Z,101714.58
2018-11-26T18:42:21.789Z,101715.94
2018-11-26T18:45:27.148Z,101716.42
2018-11-26T18:48:32.580Z,101718.08
2018-11-26T18:51:38.033Z,101725.84
2018-11-26T18:54:43.454Z,101725.00
2018-11-26T18:57:48.944Z,101731.41
2018-11-26T19:00:57.436Z,101725.48
2018-11-26T19:04:02.776Z,101735.80
2018-11-26T19:07:08.649Z,101736.60
2018-11-26T19:10:20.846Z,101745.66
2018-11-26T19:13:29.420Z,101736.70
2018-11-26T19:16:38.828Z,101749.25
2018-11-26T19:19:44.367Z,101753.59
2018-11-26T19:22:49.846Z,101753.13
2018-11-26T19:25:55.660Z,101746.61
2018-11-26T19:29:01.120Z,101747.94
2018-11-26T19:32:07.020Z,101750.86
2018-11-26T19:35:14.593Z,101745.70
2018-11-26T19:38:20.033Z,101748.20
2018-11-26T19:41:25.900Z,101742.27
2018-11-26T19:44:31.659Z,101746.55
2018-11-26T19:47:37.592Z,101747.42
2018-11-26T19:50:43.824Z,101744.27
2018-11-26T19:53:49.228Z,101752.08
2018-11-26T19:56:54.629Z,101753.43
2018-11-26T20:00:00.040Z,101753.47
2018-11-26T20:03:18.976Z,101753.91
2018-11-26T20:06:26.255Z,101758.18
2018-11-26T20:09:32.472Z,101759.91
2018-11-26T20:12:38.053Z,101759.88
2018-11-26T20:15:43.464Z,101763.74
2018-11-26T20:18:48.910Z,101769.06
2018-11-26T20:21:54.312Z,101770.75
2018-11-26T20:24:59.821Z,101766.89
2018-11-26T20:28:05.663Z,101771.66
2018-11-26T20:31:12.567Z,101775.53
2018-11-26T20:34:17.971Z,101779.02
2018-11-26T20:37:23.412Z,101780.73
2018-11-26T20:40:28.903Z,101791.43
2018-11-26T20:43:34.428Z,101796.28
2018-11-26T20:46:40.393Z,101788.55
2018-11-26T20:49:45.853Z,101794.99
2018-11-26T20:52:51.228Z,101794.99
2018-11-26T20:55:56.772Z,101801.02
2018-11-26T20:59:02.184Z,101798.92
2018-11-26T21:02:08.030Z,101803.71
2018-11-26T21:05:13.492Z,101802.48
2018-11-26T21:08:19.188Z,101812.77
2018-11-26T21:11:24.697Z,101814.03
2018-11-26T21:14:30.168Z,101816.58
2018-11-26T21:17:37.229Z,101820.88
2018-11-26T21:20:50.908Z,101823.49
2018-11-26T21:23:56.448Z,101827.81
2018-11-26T21:27:02.007Z,101827.39
2018-11-26T21:30:14.669Z,101833.41
2018-11-26T21:33:20.045Z,101835.14
2018-11-26T21:36:25.793Z,101836.44
2018-11-26T21:39:31.144Z,101838.59
2018-11-26T21:42:36.628Z,101838.20
2018-11-26T21:46:00.969Z,101833.91
2018-11-26T21:49:06.857Z,101839.92
2018-11-26T21:52:12.316Z,101838.22
2018-11-26T21:55:18.732Z,101845.94
2018-11-26T21:58:24.318Z,101843.40
2018-11-26T22:01:29.975Z,101842.56
2018-11-26T22:04:35.446Z,101844.70
2018-11-26T22:07:40.849Z,101849.84
2018-11-26T22:10:46.329Z,101850.30
2018-11-26T22:13:51.844Z,101856.31
2018-11-26T22:16:57.607Z,101861.03
2018-11-26T22:20:03.001Z,101857.59
2018-11-26T22:23:09.496Z,101862.31
2018-11-26T22:26:14.996Z,101855.91
2018-11-26T22:29:20.333Z,101866.61
2018-11-26T22:32:25.748Z,101860.19
2018-11-26T22:35:31.108Z,101862.33
2018-11-26T22:38:36.473Z,101869.19
2018-11-26T22:41:41.871Z,101873.05
2018-11-26T22:44:47.216Z,101873.50
2018-11-26T22:48:02.395Z,101870.92
2018-11-26T22:51:08.115Z,101874.77
2018-11-26T22:54:13.532Z,101879.92
2018-11-26T22:57:18.943Z,101871.80
2018-11-26T23:00:30.388Z,101875.63
2018-11-26T23:03:36.431Z,101870.08
2018-11-26T23:06:41.804Z,101867.94
2018-11-26T23:09:47.228Z,101870.92
2018-11-26T23:12:52.697Z,101877.37
2018-11-26T23:15:58.144Z,101872.64
2018-11-26T23:19:03.488Z,101877.37
2018-11-26T23:22:09.068Z,101882.93
2018-11-26T23:25:16.962Z,101888.92
2018-11-26T23:28:22.427Z,101882.06
2018-11-26T23:31:27.976Z,101887.20
2018-11-26T23:34:33.400Z,101891.93
2018-11-26T23:37:38.868Z,101893.22
2018-11-26T23:40:44.276Z,101891.90
2018-11-26T23:43:51.835Z,101894.47
2018-11-26T23:46:57.192Z,101891.48
2018-11-26T23:50:02.660Z,101894.89
2018-11-26T23:53:08.752Z,101889.77
2018-11-26T23:56:14.201Z,101888.47
2018-11-26T23:59:19.552Z,101893.61
